Time;durP1;ratioP1;P1;durP2;ratioP2;P2;SDS_P1;SDS_P2;PMS_P1;PMS_P2;Temp;Humidity;BMP_temperature;BMP_pressure;BME280_temperature;BME280_humidity;BME280_pressure;Samples;Min_cycle;Max_cycle;Signal;HPM_P1;HPM_P2
2024/01/09 00:01:44;;;;;;;2.90;2.17;;;;;;;;;;10586138;27;20523;-74
2024/01/09 00:06:47;;;;;;;12.88;4.25;;;;;;;;;;10592544;27;20039;-76
2024/01/09 00:11:52;;;;;;;2.40;0.90;;;;;;;;;;10598184;27;20035;-75
2024/01/09 00:16:54;;;;;;;;;;;;;;;;;;10571562;27;20066;-76
2024/01/09 00:21:57;;;;;;;8.60;2.90;;;;;;;;;;10595744;27;20450;-75
2024/01/09 00:27:01;;;;;;;18.50;5.80;;;;;;;;;;10593600;27;20071;-76
2024/01/09 00:32:04;;;;;;;5.00;2.50;;;;;;;;;;10583076;27;20036;-75
2024/01/09 00:37:08;;;;;;;2.30;1.97;;;;;;;;;;10595294;27;20139;-76
2024/01/09 00:42:13;;;;;;;11.30;3.77;;;;;;;;;;10595806;27;20134;-75
2024/01/09 00:47:16;;;;;;;;;;;;;;;;;;10595223;27;20126;-75
2024/01/09 00:52:18;;;;;;;5.67;3.23;;;;;;;;;;10587229;27;19927;-75
2024/01/09 00:57:22;;;;;;;11.50;3.27;;;;;;;;;;10597457;27;20206;-75
2024/01/09 01:02:25;;;;;;;;;;;;;;;;;;10592387;27;20122;-75
2024/01/09 01:07:28;;;;;;;13.87;5.47;;;;;;;;;;10589829;27;19926;-75
2024/01/09 01:12:32;;;;;;;4.83;1.80;;;;;;;;;;10589332;27;20452;-75
2024/01/09 01:17:35;;;;;;;5.73;2.10;;;;;;;;;;10585283;27;20600;-75
2024/01/09 01:22:38;;;;;;;6.03;2.83;;;;;;;;;;10587053;27;20504;-75
2024/01/09 01:27:42;;;;;;;10.23;4.07;;;;;;;;;;10590396;27;20571;-75
2024/01/09 01:32:45;;;;;;;;;;;;;;;;;;10564511;27;20067;-75
2024/01/09 01:37:48;;;;;;;7.77;2.93;;;;;;;;;;10584615;27;20021;-76
2024/01/09 01:42:52;;;;;;;9.03;3.17;;;;;;;;;;10576433;27;20639;-74
2024/01/09 01:47:55;;;;;;;7.13;2.92;;;;;;;;;;10587801;27;20039;-75
2024/01/09 01:52:58;;;;;;;11.10;4.23;;;;;;;;;;10583004;27;20506;-75
2024/01/09 01:58:03;;;;;;;6.32;2.33;;;;;;;;;;10597924;27;20071;-74
2024/01/09 02:03:06;;;;;;;8.50;3.03;;;;;;;;;;10593206;27;20218;-75
2024/01/09 02:08:10;;;;;;;8.87;3.77;;;;;;;;;;10593080;27;20043;-74
2024/01/09 02:13:14;;;;;;;1.42;1.00;;;;;;;;;;10585725;27;20164;-74
2024/01/09 02:18:17;;;;;;;8.67;2.97;;;;;;;;;;10583884;27;20054;-74
2024/01/09 02:23:20;;;;;;;9.13;2.80;;;;;;;;;;10594438;27;20158;-74
2024/01/09 02:28:27;;;;;;;7.30;3.30;;;;;;;;;;10586964;27;20076;-75
2024/01/09 02:33:33;;;;;;;5.60;2.40;;;;;;;;;;10580234;27;20255;-74
2024/01/09 02:38:35;;;;;;;5.40;2.40;;;;;;;;;;10582840;27;20035;-75
2024/01/09 02:43:38;;;;;;;9.43;2.10;;;;;;;;;;10592477;27;20047;-74
2024/01/09 02:48:42;;;;;;;9.67;3.33;;;;;;;;;;10586972;27;20035;-74
2024/01/09 02:53:45;;;;;;;;;;;;;;;;;;10579046;27;20065;-74
2024/01/09 02:58:48;;;;;;;10.97;5.40;;;;;;;;;;10587931;27;19931;-74
2024/01/09 03:03:52;;;;;;;11.03;3.33;;;;;;;;;;10582130;27;20197;-74
2024/01/09 03:08:55;;;;;;;4.90;3.07;;;;;;;;;;10592072;27;20457;-74
2024/01/09 03:13:58;;;;;;;3.53;1.73;;;;;;;;;;10590654;27;20059;-74
2024/01/09 03:19:02;;;;;;;4.53;2.07;;;;;;;;;;10594175;27;20039;-75
2024/01/09 03:24:05;;;;;;;15.00;5.27;;;;;;;;;;10590872;27;20070;-73
2024/01/09 03:29:08;;;;;;;3.87;1.93;;;;;;;;;;10597439;27;20046;-74
2024/01/09 03:34:12;;;;;;;12.50;4.13;;;;;;;;;;10592360;27;20043;-74
2024/01/09 03:39:15;;;;;;;7.72;3.63;;;;;;;;;;10590938;27;20041;-75
2024/01/09 03:44:18;;;;;;;5.60;2.40;;;;;;;;;;10592710;27;20125;-74
2024/01/09 03:49:22;;;;;;;8.80;2.67;;;;;;;;;;10594683;27;20114;-74
2024/01/09 03:54:25;;;;;;;5.77;1.90;;;;;;;;;;10594848;27;20030;-74
2024/01/09 03:59:28;;;;;;;5.13;2.03;;;;;;;;;;10592976;27;20051;-74
2024/01/09 04:04:32;;;;;;;4.17;2.53;;;;;;;;;;10595361;27;20048;-74
2024/01/09 04:09:35;;;;;;;9.93;3.73;;;;;;;;;;10594404;27;20521;-76
2024/01/09 04:14:38;;;;;;;21.20;4.53;;;;;;;;;;10606254;27;20055;-74
2024/01/09 04:19:42;;;;;;;10.45;2.50;;;;;;;;;;10591317;27;20130;-74
2024/01/09 04:24:46;;;;;;;6.43;2.33;;;;;;;;;;10594482;27;20043;-75
2024/01/09 04:29:48;;;;;;;2.93;1.43;;;;;;;;;;10597895;27;20590;-74
2024/01/09 04:34:53;;;;;;;11.27;3.37;;;;;;;;;;10592934;27;20114;-74
2024/01/09 04:39:56;;;;;;;6.60;2.93;;;;;;;;;;10616471;27;20114;-75
2024/01/09 04:44:59;;;;;;;10.73;4.27;;;;;;;;;;10592995;27;20082;-74
2024/01/09 04:50:04;;;;;;;6.80;2.30;;;;;;;;;;10592350;27;20158;-73
2024/01/09 04:55:07;;;;;;;8.83;3.20;;;;;;;;;;10591606;27;20057;-75
2024/01/09 05:00:11;;;;;;;4.70;1.08;;;;;;;;;;10585608;27;20122;-74
2024/01/09 05:05:16;;;;;;;4.03;2.58;;;;;;;;;;10589613;27;20043;-74
2024/01/09 05:10:19;;;;;;;6.40;2.73;;;;;;;;;;10588849;27;20043;-74
2024/01/09 05:15:21;;;;;;;6.87;3.00;;;;;;;;;;10588098;27;20049;-73
2024/01/09 05:20:25;;;;;;;6.30;3.43;;;;;;;;;;10590524;27;20118;-75
2024/01/09 05:25:28;;;;;;;4.18;1.67;;;;;;;;;;10585956;27;20043;-75
2024/01/09 05:30:31;;;;;;;8.40;4.20;;;;;;;;;;10587636;27;20046;-74
2024/01/09 05:35:35;;;;;;;2.90;1.57;;;;;;;;;;10594649;27;20039;-76
2024/01/09 05:40:38;;;;;;;8.40;2.47;;;;;;;;;;10590334;27;20157;-73
2024/01/09 05:45:41;;;;;;;8.70;2.80;;;;;;;;;;10581936;27;20752;-74
2024/01/09 05:50:45;;;;;;;4.90;2.03;;;;;;;;;;10593052;27;20126;-75
2024/01/09 05:55:48;;;;;;;10.37;5.13;;;;;;;;;;10589062;27;20713;-74
2024/01/09 06:00:51;;;;;;;7.70;4.80;;;;;;;;;;10579258;27;20043;-73
2024/01/09 06:05:56;;;;;;;11.80;4.63;;;;;;;;;;10586236;27;20046;-74
2024/01/09 06:10:59;;;;;;;16.33;5.83;;;;;;;;;;10594027;27;20063;-76
2024/01/09 06:16:01;;;;;;;4.13;2.87;;;;;;;;;;10589852;27;20153;-74
2024/01/09 06:21:05;;;;;;;10.63;3.50;;;;;;;;;;10566597;27;20048;-76
2024/01/09 06:26:08;;;;;;;10.07;3.77;;;;;;;;;;10581513;27;20126;-74
2024/01/09 06:31:11;;;;;;;11.37;4.13;;;;;;;;;;10573092;27;20081;-75
2024/01/09 06:36:15;;;;;;;7.57;2.53;;;;;;;;;;10577450;27;20118;-75
2024/01/09 06:41:18;;;;;;;2.72;2.53;;;;;;;;;;10577202;27;20039;-74
2024/01/09 06:46:20;;;;;;;5.53;3.13;;;;;;;;;;10586199;27;20040;-75
2024/01/09 06:51:25;;;;;;;11.53;4.27;;;;;;;;;;10590381;27;20371;-74
2024/01/09 06:56:28;;;;;;;19.53;5.67;;;;;;;;;;10594117;27;20111;-75
2024/01/09 07:01:35;;;;;;;12.57;4.90;;;;;;;;;;10602138;27;20043;-74
2024/01/09 07:06:39;;;;;;;7.67;3.47;;;;;;;;;;10576441;27;20039;-75
2024/01/09 07:11:42;;;;;;;8.20;2.73;;;;;;;;;;10597790;27;20632;-75
2024/01/09 07:16:45;;;;;;;10.23;3.50;;;;;;;;;;10582980;27;20051;-75
2024/01/09 07:21:49;;;;;;;6.93;3.37;;;;;;;;;;10592582;27;20053;-76
2024/01/09 07:26:52;;;;;;;;;;;;;;;;;;10597333;27;20396;-75
2024/01/09 07:31:55;;;;;;;7.40;3.13;;;;;;;;;;10592835;27;19919;-75
2024/01/09 07:36:59;;;;;;;14.27;3.70;;;;;;;;;;10598058;27;20035;-74
2024/01/09 07:42:02;;;;;;;5.90;2.50;;;;;;;;;;10595383;27;20057;-74
2024/01/09 07:47:07;;;;;;;12.93;4.17;;;;;;;;;;10598273;27;20069;-75
2024/01/09 07:52:12;;;;;;;8.47;3.53;;;;;;;;;;10591738;27;20071;-77
2024/01/09 07:57:15;;;;;;;10.60;3.47;;;;;;;;;;10585677;27;20051;-75
2024/01/09 08:02:24;;;;;;;6.63;3.03;;;;;;;;;;10588745;27;20047;-74
2024/01/09 08:07:28;;;;;;;6.20;2.93;;;;;;;;;;10595543;27;20508;-74
2024/01/09 08:12:31;;;;;;;10.45;4.22;;;;;;;;;;10594821;27;20209;-74
2024/01/09 08:17:34;;;;;;;6.37;2.47;;;;;;;;;;10574456;27;20438;-77
2024/01/09 08:22:38;;;;;;;5.27;1.90;;;;;;;;;;10595485;27;20046;-74
2024/01/09 08:27:41;;;;;;;3.13;2.22;;;;;;;;;;10595694;27;20121;-74
2024/01/09 08:32:43;;;;;;;6.67;3.23;;;;;;;;;;10593217;27;20516;-74
2024/01/09 08:37:48;;;;;;;6.80;3.23;;;;;;;;;;10586079;27;20054;-75
2024/01/09 08:42:51;;;;;;;8.23;3.53;;;;;;;;;;10586106;27;20196;-74
2024/01/09 08:47:53;;;;;;;4.70;2.33;;;;;;;;;;10584956;27;20054;-75
2024/01/09 08:52:58;;;;;;;8.90;3.10;;;;;;;;;;10591474;27;20108;-74
2024/01/09 08:58:01;;;;;;;7.00;3.27;;;;;;;;;;10591833;27;20047;-75
2024/01/09 09:03:04;;;;;;;8.27;4.30;;;;;;;;;;10591599;27;20039;-75
2024/01/09 09:08:08;;;;;;;3.23;2.00;;;;;;;;;;10595157;27;20044;-75
2024/01/09 09:13:11;;;;;;;;;;;;;;;;;;10588511;27;20067;-75
2024/01/09 09:18:14;;;;;;;11.13;3.40;;;;;;;;;;10586889;27;19968;-75
2024/01/09 09:23:18;;;;;;;14.80;4.83;;;;;;;;;;10591352;27;20036;-75
2024/01/09 09:28:22;;;;;;;12.47;4.33;;;;;;;;;;10601752;27;20065;-75
2024/01/09 09:33:27;;;;;;;9.88;3.95;;;;;;;;;;10589707;27;20044;-75
2024/01/09 09:38:33;;;;;;;12.20;3.83;;;;;;;;;;10586323;27;20135;-73
2024/01/09 09:43:35;;;;;;;3.73;1.33;;;;;;;;;;10590994;27;20039;-74
2024/01/09 09:48:38;;;;;;;5.10;2.07;;;;;;;;;;10591465;27;20057;-75
2024/01/09 09:53:43;;;;;;;10.80;4.93;;;;;;;;;;10586720;27;20054;-75
2024/01/09 09:58:45;;;;;;;12.80;5.28;;;;;;;;;;10590092;27;20392;-75
2024/01/09 10:03:49;;;;;;;9.33;4.17;;;;;;;;;;10588942;27;20100;-75
2024/01/09 10:08:54;;;;;;;3.78;2.28;;;;;;;;;;10589301;27;20046;-75
2024/01/09 10:13:58;;;;;;;9.97;3.93;;;;;;;;;;10587411;27;20075;-74
2024/01/09 10:19:01;;;;;;;8.47;3.87;;;;;;;;;;10591208;27;20055;-75
2024/01/09 10:24:06;;;;;;;5.45;2.25;;;;;;;;;;10597235;27;20476;-75
2024/01/09 10:29:09;;;;;;;17.53;5.80;;;;;;;;;;10599026;27;20043;-75
2024/01/09 10:34:11;;;;;;;6.80;2.70;;;;;;;;;;10598365;27;20130;-74
2024/01/09 10:39:16;;;;;;;6.17;2.30;;;;;;;;;;10595352;27;20376;-76
2024/01/09 10:44:20;;;;;;;2.63;1.15;;;;;;;;;;10576419;27;20453;-75
2024/01/09 10:49:23;;;;;;;10.20;3.97;;;;;;;;;;10585569;27;20053;-76
2024/01/09 10:54:28;;;;;;;14.65;4.47;;;;;;;;;;10594166;27;20031;-75
2024/01/09 10:59:32;;;;;;;5.23;3.07;;;;;;;;;;10592326;27;20039;-74
2024/01/09 11:04:35;;;;;;;10.53;4.07;;;;;;;;;;10592981;27;20119;-75
2024/01/09 11:09:40;;;;;;;18.37;6.10;;;;;;;;;;10597310;27;20420;-74
2024/01/09 11:14:44;;;;;;;16.30;4.43;;;;;;;;;;10574176;27;20047;-74
2024/01/09 11:19:46;;;;;;;14.15;5.22;;;;;;;;;;10601184;27;20046;-76
2024/01/09 11:24:56;;;;;;;19.17;6.37;;;;;;;;;;10586515;27;20039;-75
2024/01/09 11:30:02;;;;;;;13.25;5.97;;;;;;;;;;10599501;27;20115;-74
2024/01/09 11:35:08;;;;;;;10.00;5.32;;;;;;;;;;10590848;27;20046;-75
2024/01/09 11:40:13;;;;;;;19.77;8.63;;;;;;;;;;10589273;27;20111;-74
2024/01/09 11:45:20;;;;;;;17.13;5.88;;;;;;;;;;10593981;27;20047;-74
2024/01/09 11:50:23;;;;;;;23.63;9.73;;;;;;;;;;10587908;27;20043;-75
2024/01/09 11:55:28;;;;;;;26.50;8.15;;;;;;;;;;10589171;27;20039;-75
2024/01/09 12:00:31;;;;;;;21.80;9.65;;;;;;;;;;10598653;27;20552;-76
2024/01/09 12:05:34;;;;;;;23.27;9.77;;;;;;;;;;10588641;27;20062;-76
2024/01/09 12:10:47;;;;;;;18.60;6.80;;;;;;;;;;10586833;27;20134;-75
2024/01/09 12:15:51;;;;;;;;;;;;;;;;;;10591729;27;20314;-76
2024/01/09 12:20:54;;;;;;;22.55;7.70;;;;;;;;;;10593137;27;19928;-75
2024/01/09 12:25:59;;;;;;;21.20;9.07;;;;;;;;;;10584797;27;20047;-76
2024/01/09 12:31:02;;;;;;;18.77;8.50;;;;;;;;;;10583582;27;20112;-76
2024/01/09 12:36:05;;;;;;;19.88;8.60;;;;;;;;;;10589020;27;20123;-75
2024/01/09 12:41:09;;;;;;;18.87;7.97;;;;;;;;;;10572286;27;20035;-75
2024/01/09 12:46:12;;;;;;;22.33;8.65;;;;;;;;;;10588578;27;20516;-76
2024/01/09 12:51:15;;;;;;;21.85;8.57;;;;;;;;;;10590330;27;20074;-75
2024/01/09 12:56:19;;;;;;;14.25;6.07;;;;;;;;;;10589234;27;20031;-74
2024/01/09 13:01:25;;;;;;;21.00;8.52;;;;;;;;;;10585699;27;20136;-74
2024/01/09 13:06:32;;;;;;;22.10;7.15;;;;;;;;;;10582988;27;20517;-74
2024/01/09 13:11:36;;;;;;;17.10;6.35;;;;;;;;;;10583769;27;20047;-75
2024/01/09 13:16:39;;;;;;;18.77;6.90;;;;;;;;;;10575512;27;20031;-75
2024/01/09 13:21:41;;;;;;;17.60;7.20;;;;;;;;;;10590003;27;20066;-75
2024/01/09 13:26:49;;;;;;;20.05;7.47;;;;;;;;;;10584857;27;20119;-74
2024/01/09 13:31:52;;;;;;;18.10;7.32;;;;;;;;;;10590000;27;20547;-75
2024/01/09 13:36:56;;;;;;;18.50;7.28;;;;;;;;;;10586130;27;20067;-76
2024/01/09 13:42:01;;;;;;;16.15;6.28;;;;;;;;;;10566953;27;20124;-75
2024/01/09 13:47:05;;;;;;;22.05;8.10;;;;;;;;;;10583722;27;20040;-75
2024/01/09 13:52:08;;;;;;;19.23;6.18;;;;;;;;;;10591566;27;20077;-74
2024/01/09 13:57:13;;;;;;;12.20;4.60;;;;;;;;;;10587922;27;20132;-75
2024/01/09 14:02:16;;;;;;;12.90;5.47;;;;;;;;;;10581816;27;20131;-75
2024/01/09 14:07:19;;;;;;;8.90;3.20;;;;;;;;;;10582136;27;20023;-74
2024/01/09 14:12:22;;;;;;;13.13;4.20;;;;;;;;;;10579591;27;20288;-74
2024/01/09 14:17:25;;;;;;;11.93;4.05;;;;;;;;;;10586842;27;20039;-76
2024/01/09 14:22:28;;;;;;;16.73;5.73;;;;;;;;;;10588858;27;20028;-74
2024/01/09 14:27:32;;;;;;;10.40;4.80;;;;;;;;;;10585598;27;20054;-73
2024/01/09 14:32:36;;;;;;;;;;;;;;;;;;10585617;27;20093;-75
2024/01/09 14:37:39;;;;;;;5.68;2.30;;;;;;;;;;10582420;27;19930;-74
2024/01/09 14:42:43;;;;;;;4.83;1.97;;;;;;;;;;10584888;27;20160;-74
2024/01/09 14:47:46;;;;;;;;;;;;;;;;;;10581042;27;20046;-75
2024/01/09 14:52:49;;;;;;;6.77;3.30;;;;;;;;;;10579078;27;19920;-74
2024/01/09 14:57:53;;;;;;;4.37;3.17;;;;;;;;;;10582888;27;20443;-74
2024/01/09 15:02:57;;;;;;;;;;;;;;;;;;10595099;27;20048;-75
2024/01/09 15:08:01;;;;;;;8.18;3.47;;;;;;;;;;10588617;27;20002;-74
2024/01/09 15:13:06;;;;;;;17.50;6.97;;;;;;;;;;10594305;27;20051;-74
2024/01/09 15:18:08;;;;;;;13.25;5.28;;;;;;;;;;10595852;27;20101;-74
2024/01/09 15:23:11;;;;;;;7.90;3.43;;;;;;;;;;10592966;27;20050;-75
2024/01/09 15:28:17;;;;;;;14.20;4.88;;;;;;;;;;10591067;27;20547;-75
2024/01/09 15:33:20;;;;;;;10.37;4.37;;;;;;;;;;10573638;27;20458;-75
2024/01/09 15:38:23;;;;;;;15.77;4.17;;;;;;;;;;10595813;27;20052;-74
2024/01/09 15:43:27;;;;;;;8.30;3.83;;;;;;;;;;10595797;27;20047;-75
2024/01/09 15:48:30;;;;;;;9.73;3.97;;;;;;;;;;10595572;27;20035;-75
2024/01/09 15:53:33;;;;;;;13.40;5.33;;;;;;;;;;10580259;27;20039;-75
2024/01/09 15:58:37;;;;;;;9.13;3.83;;;;;;;;;;10599183;27;20035;-75
2024/01/09 16:03:39;;;;;;;13.88;4.65;;;;;;;;;;10590959;27;20051;-75
2024/01/09 16:08:43;;;;;;;15.17;5.97;;;;;;;;;;10591794;27;20118;-75
2024/01/09 16:13:48;;;;;;;6.37;2.90;;;;;;;;;;10592241;27;20403;-76
2024/01/09 16:18:51;;;;;;;9.17;4.40;;;;;;;;;;10588654;27;20044;-75
2024/01/09 16:23:54;;;;;;;4.50;2.07;;;;;;;;;;10596480;27;20139;-75
2024/01/09 16:28:58;;;;;;;8.53;3.53;;;;;;;;;;10589238;27;20739;-75
2024/01/09 16:34:01;;;;;;;5.50;2.47;;;;;;;;;;10594899;27;20039;-75
2024/01/09 16:39:06;;;;;;;10.10;4.30;;;;;;;;;;10592754;27;20073;-75
2024/01/09 16:44:12;;;;;;;34.37;11.17;;;;;;;;;;10571093;27;20485;-75
2024/01/09 16:49:15;;;;;;;14.50;5.00;;;;;;;;;;10595771;27;20053;-73
2024/01/09 16:54:18;;;;;;;27.37;7.30;;;;;;;;;;10586690;27;20047;-75
2024/01/09 16:59:23;;;;;;;15.83;5.97;;;;;;;;;;10596740;27;20131;-75
2024/01/09 17:04:28;;;;;;;16.47;5.30;;;;;;;;;;10590095;27;20065;-74
2024/01/09 17:09:31;;;;;;;15.20;4.97;;;;;;;;;;10584500;27;20042;-74
2024/01/09 17:14:35;;;;;;;13.87;5.30;;;;;;;;;;10597578;27;20111;-75
2024/01/09 17:19:38;;;;;;;;;;;;;;;;;;10596538;27;20448;-74
2024/01/09 17:24:42;;;;;;;20.67;7.23;;;;;;;;;;10581086;27;20277;-75
2024/01/09 17:29:46;;;;;;;;;;;;;;;;;;10586556;27;20040;-75
2024/01/09 17:34:51;;;;;;;22.60;7.00;;;;;;;;;;10586226;27;20368;-75
2024/01/09 17:39:54;;;;;;;21.70;5.67;;;;;;;;;;10590120;27;20507;-75
2024/01/09 17:44:57;;;;;;;17.80;5.60;;;;;;;;;;10582232;27;20043;-75
2024/01/09 17:50:02;;;;;;;14.37;5.87;;;;;;;;;;10589081;27;20039;-75
2024/01/09 17:55:05;;;;;;;15.13;5.63;;;;;;;;;;10588877;27;20547;-75
2024/01/09 18:00:09;;;;;;;24.67;6.40;;;;;;;;;;10590545;27;20076;-75
2024/01/09 18:05:13;;;;;;;13.35;5.88;;;;;;;;;;10596785;27;20315;-76
2024/01/09 18:10:17;;;;;;;17.57;6.10;;;;;;;;;;10592721;27;20497;-76
2024/01/09 18:15:20;;;;;;;19.30;6.13;;;;;;;;;;10586524;27;20108;-75
2024/01/09 18:20:27;;;;;;;17.10;6.75;;;;;;;;;;10589894;27;20125;-75
2024/01/09 18:25:30;;;;;;;18.60;5.60;;;;;;;;;;10588873;27;20529;-74
2024/01/09 18:30:34;;;;;;;7.70;3.58;;;;;;;;;;10580532;27;20199;-75
2024/01/09 18:35:39;;;;;;;22.00;6.07;;;;;;;;;;10604611;27;20081;-75
2024/01/09 18:40:43;;;;;;;14.70;4.83;;;;;;;;;;10599236;27;20346;-74
2024/01/09 18:45:46;;;;;;;10.57;3.90;;;;;;;;;;10611517;27;20035;-75
2024/01/09 18:50:50;;;;;;;14.87;4.73;;;;;;;;;;10609179;27;20051;-75
2024/01/09 18:55:54;;;;;;;20.27;7.33;;;;;;;;;;10608775;27;20045;-75
2024/01/09 19:00:57;;;;;;;18.52;5.95;;;;;;;;;;10586118;27;20038;-75
2024/01/09 19:06:03;;;;;;;14.47;4.50;;;;;;;;;;10607041;27;20060;-75
2024/01/09 19:11:06;;;;;;;11.87;4.77;;;;;;;;;;10605814;27;20047;-75
2024/01/09 19:16:09;;;;;;;15.77;6.28;;;;;;;;;;10602549;27;20039;-76
2024/01/09 19:21:13;;;;;;;24.47;5.80;;;;;;;;;;10608097;27;20043;-75
2024/01/09 19:26:16;;;;;;;20.63;6.65;;;;;;;;;;10609487;27;20355;-75
2024/01/09 19:31:20;;;;;;;13.48;5.43;;;;;;;;;;10606441;27;20051;-75
2024/01/09 19:36:24;;;;;;;16.30;5.10;;;;;;;;;;10605008;27;20135;-75
2024/01/09 19:41:27;;;;;;;;;;;;;;;;;;10603588;27;20066;-75
2024/01/09 19:46:30;;;;;;;16.93;5.17;;;;;;;;;;10598104;27;20006;-75
2024/01/09 19:51:34;;;;;;;18.17;5.83;;;;;;;;;;10610968;27;20051;-75
2024/01/09 19:56:37;;;;;;;14.90;5.55;;;;;;;;;;10591118;27;20050;-76
2024/01/09 20:01:41;;;;;;;18.90;5.80;;;;;;;;;;10598136;27;20118;-75
2024/01/09 20:06:45;;;;;;;12.67;5.17;;;;;;;;;;10593485;27;20132;-76
2024/01/09 20:11:48;;;;;;;17.90;6.13;;;;;;;;;;10596901;27;20122;-75
2024/01/09 20:16:51;;;;;;;17.77;6.97;;;;;;;;;;10590803;27;20073;-76
2024/01/09 20:21:56;;;;;;;25.07;7.67;;;;;;;;;;10595185;27;20518;-76
2024/01/09 20:26:58;;;;;;;;;;;;;;;;;;10588296;27;20050;-75
2024/01/09 20:32:01;;;;;;;26.47;8.77;;;;;;;;;;10590977;27;19966;-75
2024/01/09 20:37:06;;;;;;;20.37;7.27;;;;;;;;;;10576599;27;20046;-75
2024/01/09 20:42:09;;;;;;;22.40;7.77;;;;;;;;;;10593403;27;20126;-76
2024/01/09 20:47:11;;;;;;;28.60;8.47;;;;;;;;;;10591430;27;20401;-76
2024/01/09 20:52:15;;;;;;;20.53;8.40;;;;;;;;;;10599213;27;20059;-75
2024/01/09 20:57:18;;;;;;;;;;;;;;;;;;10588450;27;20092;-75
2024/01/09 21:02:21;;;;;;;24.10;8.07;;;;;;;;;;10590502;27;20342;-76
2024/01/09 21:07:26;;;;;;;25.53;8.20;;;;;;;;;;10588693;27;20040;-76
2024/01/09 21:12:29;;;;;;;20.23;6.53;;;;;;;;;;10592981;27;20050;-74
2024/01/09 21:17:32;;;;;;;26.73;7.90;;;;;;;;;;10590457;27;20527;-75
2024/01/09 21:22:36;;;;;;;21.87;6.87;;;;;;;;;;10571695;27;20499;-75
2024/01/09 21:27:39;;;;;;;;;;;;;;;;;;10595219;27;20048;-76
2024/01/09 21:32:42;;;;;;;28.80;9.23;;;;;;;;;;10591533;27;19924;-76
2024/01/09 21:37:46;;;;;;;28.20;8.53;;;;;;;;;;10570429;27;20035;-76
2024/01/09 21:42:50;;;;;;;31.20;10.80;;;;;;;;;;10591081;27;20377;-76
2024/01/09 21:47:53;;;;;;;33.45;10.93;;;;;;;;;;10585410;27;20031;-77
2024/01/09 21:53:00;;;;;;;31.83;11.30;;;;;;;;;;10588545;27;20443;-76
2024/01/09 21:58:04;;;;;;;7.77;3.03;;;;;;;;;;10589171;27;20043;-75
2024/01/09 22:03:07;;;;;;;35.33;12.23;;;;;;;;;;10588508;27;20070;-75
2024/01/09 22:08:13;;;;;;;35.80;11.50;;;;;;;;;;10567031;27;20473;-75
2024/01/09 22:13:16;;;;;;;41.83;12.20;;;;;;;;;;10585361;27;20036;-75
2024/01/09 22:18:19;;;;;;;25.00;8.80;;;;;;;;;;10592994;27;20046;-75
2024/01/09 22:23:24;;;;;;;34.97;12.02;;;;;;;;;;10592206;27;20483;-74
2024/01/09 22:28:27;;;;;;;29.13;10.50;;;;;;;;;;10567180;27;20039;-74
2024/01/09 22:33:29;;;;;;;33.47;12.83;;;;;;;;;;10578673;27;20055;-75
2024/01/09 22:38:34;;;;;;;34.77;11.17;;;;;;;;;;10595265;27;20036;-76
2024/01/09 22:43:36;;;;;;;20.17;6.40;;;;;;;;;;10578884;27;20484;-75
2024/01/09 22:48:39;;;;;;;6.30;3.37;;;;;;;;;;10573777;27;20032;-76
2024/01/09 22:53:44;;;;;;;15.27;6.40;;;;;;;;;;10573636;27;20124;-76
2024/01/09 22:58:50;;;;;;;33.67;11.97;;;;;;;;;;10591542;27;20067;-74
2024/01/09 23:03:53;;;;;;;23.33;7.60;;;;;;;;;;10587733;27;20043;-74
2024/01/09 23:08:57;;;;;;;30.40;9.30;;;;;;;;;;10587929;27;20031;-75
2024/01/09 23:14:00;;;;;;;13.73;5.75;;;;;;;;;;10587434;27;20186;-76
2024/01/09 23:19:04;;;;;;;9.43;2.33;;;;;;;;;;10583682;27;20040;-77
2024/01/09 23:24:08;;;;;;;11.33;5.13;;;;;;;;;;10589796;27;20139;-77
2024/01/09 23:29:11;;;;;;;26.03;7.93;;;;;;;;;;10585165;27;20077;-77
2024/01/09 23:34:14;;;;;;;23.57;7.33;;;;;;;;;;10589487;27;20043;-76
2024/01/09 23:39:19;;;;;;;26.10;6.37;;;;;;;;;;10595953;27;20407;-75
2024/01/09 23:44:22;;;;;;;;;;;;;;;;;;10595620;27;20308;-74
2024/01/09 23:49:25;;;;;;;4.97;2.47;;;;;;;;;;10599309;27;19919;-76
2024/01/09 23:54:29;;;;;;;25.93;9.50;;;;;;;;;;10594561;27;20059;-76
2024/01/09 23:59:32;;;;;;;41.70;13.80;;;;;;;;;;10592332;27;20679;-76
